Time,TemperatureF,DewpointF,PressureIn,WindDirection,WindDirectionDegrees,WindSpeedMPH,WindSpeedGustMPH,Humidity,HourlyPrecipIn,Conditions,Clouds,dailyrainin,SoftwareType,DateUTC
2013-05-10 00:02:00,75.0,67.0,-100.00,NNW,340,6.0,9.0,76,0.00,,,0.00,,2013-05-10 10:02:00,
2013-05-10 00:12:00,75.0,67.0,-100.00,NNW,340,6.0,9.0,76,0.00,,,0.00,,2013-05-10 10:12:00,
2013-05-10 00:23:00,75.0,67.0,-100.00,NNW,340,6.0,9.0,76,0.00,,,0.00,,2013-05-10 10:23:00,
2013-05-10 00:32:00,75.0,67.0,-100.00,NNW,340,6.0,9.0,76,0.00,,,0.00,,2013-05-10 10:32:00,
2013-05-10 00:41:00,75.0,67.0,-100.00,North,5,5.0,8.0,77,0.00,,,0.00,,2013-05-10 10:41:00,
2013-05-10 01:02:00,75.0,67.0,-100.00,North,5,5.0,8.0,77,0.00,,,0.00,,2013-05-10 11:02:00,
2013-05-10 01:12:00,75.0,67.0,-100.00,North,5,5.0,8.0,77,0.00,,,0.00,,2013-05-10 11:12:00,
2013-05-10 01:21:00,75.0,67.0,-100.00,North,5,5.0,8.0,77,0.00,,,0.00,,2013-05-10 11:21:00,
2013-05-10 01:32:00,75.0,67.0,-100.00,North,5,5.0,8.0,77,0.00,,,0.00,,2013-05-10 11:32:00,
2013-05-10 03:41:00,73.0,66.0,-100.00,NNE,20,5.0,9.0,80,-99.99,,,0.00,,2013-05-10 13:41:00,
2013-05-10 04:02:00,73.0,66.0,-100.00,NNE,20,5.0,9.0,80,-99.99,,,0.00,,2013-05-10 14:02:00,
2013-05-10 04:11:00,73.0,66.0,-100.00,NNE,20,5.0,9.0,80,-99.99,,,0.00,,2013-05-10 14:11:00,
2013-05-10 04:21:00,73.0,66.0,-100.00,NNE,20,5.0,9.0,80,-99.99,,,0.00,,2013-05-10 14:21:00,
2013-05-10 04:32:00,73.0,66.0,-100.00,NNE,20,5.0,9.0,80,-99.99,,,0.00,,2013-05-10 14:32:00,
2013-05-10 04:41:00,73.0,67.0,-100.00,North,358,5.0,11.0,82,0.00,,,0.00,,2013-05-10 14:41:00,
2013-05-10 05:01:00,73.0,67.0,-100.00,North,358,5.0,11.0,82,0.00,,,0.00,,2013-05-10 15:01:00,
2013-05-10 05:20:00,-999.0,-99.9,-100.00,North,358,5.0,11.0,82,0.00,,,0.00,,2013-05-10 15:20:00,
2013-05-10 05:32:00,73.0,67.0,-100.00,North,358,5.0,11.0,82,0.00,,,0.00,,2013-05-10 15:32:00,
2013-05-10 05:41:00,73.0,67.0,-100.00,NNW,348,5.0,11.0,82,0.00,,,0.00,,2013-05-10 15:41:00,
2013-05-10 06:02:00,73.0,67.0,-100.00,NNW,348,5.0,11.0,82,0.00,,,0.00,,2013-05-10 16:02:00,
2013-05-10 06:12:00,73.0,67.0,-100.00,NNW,348,5.0,11.0,82,0.00,,,0.00,,2013-05-10 16:12:00,
2013-05-10 06:23:00,73.0,67.0,-100.00,NNW,348,5.0,11.0,82,0.00,,,0.00,,2013-05-10 16:23:00,
2013-05-10 06:32:00,73.0,67.0,-100.00,NNW,348,5.0,11.0,82,0.00,,,0.00,,2013-05-10 16:32:00,
2013-05-10 06:41:00,74.0,68.0,-100.00,North,1,6.0,10.0,82,0.00,,,0.00,,2013-05-10 16:41:00,
2013-05-10 07:02:00,74.0,68.0,-100.00,North,1,6.0,10.0,82,0.00,,,0.00,,2013-05-10 17:02:00,
2013-05-10 07:12:00,74.0,68.0,-100.00,North,1,6.0,10.0,82,0.00,,,0.00,,2013-05-10 17:12:00,
2013-05-10 07:21:00,74.0,68.0,-100.00,North,1,6.0,10.0,82,0.00,,,0.00,,2013-05-10 17:21:00,
2013-05-10 07:32:00,74.0,68.0,-100.00,North,1,6.0,10.0,82,0.00,,,0.00,,2013-05-10 17:32:00,
2013-05-10 07:41:00,75.0,69.0,-100.00,North,349,6.0,11.0,82,0.00,,,0.00,,2013-05-10 17:41:00,
2013-05-10 08:10:00,-999.0,-99.9,-100.00,North,349,6.0,11.0,82,0.00,,,0.00,,2013-05-10 18:10:00,
2013-05-10 08:21:00,75.0,69.0,-100.00,North,349,6.0,11.0,82,0.00,,,0.00,,2013-05-10 18:21:00,
2013-05-10 08:34:00,75.0,69.0,-100.00,North,349,6.0,11.0,82,0.00,,,0.00,,2013-05-10 18:34:00,
2013-05-10 08:41:00,77.0,70.0,-100.00,North,6,7.0,12.0,80,0.00,,,0.00,,2013-05-10 18:41:00,
2013-05-10 09:02:00,77.0,70.0,-100.00,North,6,7.0,12.0,80,0.00,,,0.00,,2013-05-10 19:02:00,
2013-05-10 09:11:00,77.0,70.0,-100.00,North,6,7.0,12.0,80,0.00,,,0.00,,2013-05-10 19:11:00,
2013-05-10 09:21:00,77.0,70.0,-100.00,North,6,7.0,12.0,80,0.00,,,0.00,,2013-05-10 19:21:00,
2013-05-10 09:32:00,77.0,70.0,-100.00,North,6,7.0,12.0,80,0.00,,,0.00,,2013-05-10 19:32:00,
2013-05-10 09:41:00,79.0,71.0,-100.00,NE,46,7.0,12.0,76,0.00,,,0.00,,2013-05-10 19:41:00,
2013-05-10 10:01:00,79.0,71.0,-100.00,NE,46,7.0,12.0,76,0.00,,,0.00,,2013-05-10 20:01:00,
2013-05-10 10:12:00,79.0,71.0,-100.00,NE,46,7.0,12.0,76,0.00,,,0.00,,2013-05-10 20:12:00,
2013-05-10 10:21:00,79.0,71.0,-100.00,NE,46,7.0,12.0,76,0.00,,,0.00,,2013-05-10 20:21:00,
2013-05-10 10:31:00,79.0,71.0,-100.00,NE,46,7.0,12.0,76,0.00,,,0.00,,2013-05-10 20:31:00,
2013-05-10 10:41:00,82.0,71.0,-100.00,NNE,29,6.0,10.0,70,0.00,,,0.00,,2013-05-10 20:41:00,
2013-05-10 11:01:00,82.0,71.0,-100.00,NNE,29,6.0,10.0,70,0.00,,,0.00,,2013-05-10 21:01:00,
2013-05-10 11:11:00,82.0,71.0,-100.00,NNE,29,6.0,10.0,70,0.00,,,0.00,,2013-05-10 21:11:00,
2013-05-10 11:24:00,82.0,71.0,-100.00,NNE,29,6.0,10.0,70,0.00,,,0.00,,2013-05-10 21:24:00,
2013-05-10 11:32:00,82.0,71.0,-100.00,NNE,29,6.0,10.0,70,0.00,,,0.00,,2013-05-10 21:32:00,
2013-05-10 11:41:00,83.0,70.0,-100.00,NNE,27,4.0,11.0,65,0.00,,,0.00,,2013-05-10 21:41:00,
2013-05-10 12:02:00,83.0,70.0,-100.00,NNE,27,4.0,11.0,65,0.00,,,0.00,,2013-05-10 22:02:00,
2013-05-10 12:12:00,83.0,70.0,-100.00,NNE,27,4.0,11.0,65,0.00,,,0.00,,2013-05-10 22:12:00,
2013-05-10 12:22:00,83.0,70.0,-100.00,NNE,27,4.0,11.0,65,0.00,,,0.00,,2013-05-10 22:22:00,
2013-05-10 12:32:00,83.0,70.0,-100.00,NNE,27,4.0,11.0,65,0.00,,,0.00,,2013-05-10 22:32:00,
2013-05-10 12:41:00,81.0,68.0,-100.00,South,173,7.0,14.0,64,0.00,,,0.00,,2013-05-10 22:41:00,
2013-05-10 13:02:00,81.0,68.0,-100.00,South,173,7.0,14.0,64,0.00,,,0.00,,2013-05-10 23:02:00,
2013-05-10 13:12:00,81.0,68.0,-100.00,South,173,7.0,14.0,64,0.00,,,0.00,,2013-05-10 23:12:00,
2013-05-10 13:22:00,81.0,68.0,-100.00,South,173,7.0,14.0,64,0.00,,,0.00,,2013-05-10 23:22:00,
2013-05-10 13:32:00,81.0,68.0,-100.00,South,173,7.0,14.0,64,0.00,,,0.00,,2013-05-10 23:32:00,
2013-05-10 13:41:00,82.0,69.0,-100.00,SW,218,4.0,10.0,66,0.00,,,0.00,,2013-05-10 23:41:00,
2013-05-10 14:01:00,82.0,69.0,-100.00,SW,218,4.0,10.0,66,0.00,,,0.00,,2013-05-11 00:01:00,
2013-05-10 14:11:00,82.0,69.0,-100.00,SW,218,4.0,10.0,66,0.00,,,0.00,,2013-05-11 00:11:00,
2013-05-10 14:21:00,82.0,69.0,-100.00,SW,218,4.0,10.0,66,0.00,,,0.00,,2013-05-11 00:21:00,
2013-05-10 14:32:00,82.0,69.0,-100.00,SW,218,4.0,10.0,66,0.00,,,0.00,,2013-05-11 00:32:00,
2013-05-10 14:41:00,78.0,66.0,-100.00,NE,47,7.0,11.0,67,0.00,,,0.00,,2013-05-11 00:41:00,
2013-05-10 15:01:00,78.0,66.0,-100.00,NE,47,7.0,11.0,67,0.00,,,0.00,,2013-05-11 01:01:00,
2013-05-10 15:11:00,78.0,66.0,-100.00,NE,47,7.0,11.0,67,0.00,,,0.00,,2013-05-11 01:11:00,
2013-05-10 15:21:00,78.0,66.0,-100.00,NE,47,7.0,11.0,67,0.00,,,0.00,,2013-05-11 01:21:00,
2013-05-10 15:31:00,78.0,66.0,-100.00,NE,47,7.0,11.0,67,0.00,,,0.00,,2013-05-11 01:31:00,
2013-05-10 15:41:00,80.0,70.0,-100.00,NE,49,3.0,9.0,71,0.00,,,0.00,,2013-05-11 01:41:00,
2013-05-10 16:02:00,80.0,70.0,-100.00,NE,49,3.0,9.0,71,0.00,,,0.00,,2013-05-11 02:02:00,
2013-05-10 16:11:00,80.0,70.0,-100.00,NE,49,3.0,9.0,71,0.00,,,0.00,,2013-05-11 02:11:00,
2013-05-10 16:21:00,80.0,70.0,-100.00,NE,49,3.0,9.0,71,0.00,,,0.00,,2013-05-11 02:21:00,
2013-05-10 16:32:00,80.0,70.0,-100.00,NE,49,3.0,9.0,71,0.00,,,0.00,,2013-05-11 02:32:00,
2013-05-10 16:41:00,79.0,69.0,-100.00,ENE,63,7.0,11.0,72,0.00,,,0.00,,2013-05-11 02:41:00,
2013-05-10 17:01:00,79.0,69.0,-100.00,ENE,63,7.0,11.0,72,0.00,,,0.00,,2013-05-11 03:01:00,
2013-05-10 17:11:00,79.0,69.0,-100.00,ENE,63,7.0,11.0,72,0.00,,,0.00,,2013-05-11 03:11:00,
2013-05-10 17:21:00,79.0,69.0,-100.00,ENE,63,7.0,11.0,72,0.00,,,0.00,,2013-05-11 03:21:00,
2013-05-10 17:32:00,79.0,69.0,-100.00,ENE,63,7.0,11.0,72,0.00,,,0.00,,2013-05-11 03:32:00,
2013-05-10 17:41:00,80.0,70.0,-100.00,ENE,62,7.0,13.0,72,0.00,,,0.00,,2013-05-11 03:41:00,
2013-05-10 18:02:00,80.0,70.0,-100.00,ENE,62,7.0,13.0,72,0.00,,,0.00,,2013-05-11 04:02:00,
2013-05-10 18:12:00,80.0,70.0,-100.00,ENE,62,7.0,13.0,72,0.00,,,0.00,,2013-05-11 04:12:00,
2013-05-10 18:23:00,80.0,70.0,-100.00,ENE,62,7.0,13.0,72,0.00,,,0.00,,2013-05-11 04:23:00,
2013-05-10 18:33:00,80.0,70.0,-100.00,ENE,62,7.0,13.0,72,0.00,,,0.00,,2013-05-11 04:33:00,
2013-05-10 18:41:00,78.0,68.0,-100.00,NNE,29,7.0,12.0,71,0.00,,,0.00,,2013-05-11 04:41:00,
2013-05-10 19:02:00,78.0,68.0,-100.00,NNE,29,7.0,12.0,71,0.00,,,0.00,,2013-05-11 05:02:00,
2013-05-10 19:12:00,78.0,68.0,-100.00,NNE,29,7.0,12.0,71,0.00,,,0.00,,2013-05-11 05:12:00,
2013-05-10 19:21:00,78.0,68.0,-100.00,NNE,29,7.0,12.0,71,0.00,,,0.00,,2013-05-11 05:21:00,
2013-05-10 19:32:00,78.0,68.0,-100.00,NNE,29,7.0,12.0,71,0.00,,,0.00,,2013-05-11 05:32:00,
2013-05-10 19:41:00,76.0,67.0,-100.00,NNE,15,7.0,12.0,73,0.00,,,0.00,,2013-05-11 05:41:00,
2013-05-10 20:02:00,76.0,67.0,-100.00,NNE,15,7.0,12.0,73,0.00,,,0.00,,2013-05-11 06:02:00,
2013-05-10 20:12:00,76.0,67.0,-100.00,NNE,15,7.0,12.0,73,0.00,,,0.00,,2013-05-11 06:12:00,
2013-05-10 20:21:00,76.0,67.0,-100.00,NNE,15,7.0,12.0,73,0.00,,,0.00,,2013-05-11 06:21:00,
2013-05-10 20:32:00,76.0,67.0,-100.00,NNE,15,7.0,12.0,73,0.00,,,0.00,,2013-05-11 06:32:00,
2013-05-10 20:41:00,75.0,67.0,-100.00,North,355,6.0,10.0,75,0.00,,,0.00,,2013-05-11 06:41:00,
2013-05-10 21:01:00,75.0,67.0,-100.00,North,355,6.0,10.0,75,0.00,,,0.00,,2013-05-11 07:01:00,
2013-05-10 21:11:00,75.0,67.0,-100.00,North,355,6.0,10.0,75,0.00,,,0.00,,2013-05-11 07:11:00,
2013-05-10 21:21:00,75.0,67.0,-100.00,North,355,6.0,10.0,75,0.00,,,0.00,,2013-05-11 07:21:00,
2013-05-10 21:31:00,75.0,67.0,-100.00,North,355,6.0,10.0,75,0.00,,,0.00,,2013-05-11 07:31:00,
2013-05-10 21:41:00,74.0,66.0,-100.00,North,2,6.0,11.0,77,0.00,,,0.00,,2013-05-11 07:41:00,
2013-05-10 22:01:00,74.0,66.0,-100.00,North,2,6.0,11.0,77,0.00,,,0.00,,2013-05-11 08:01:00,
2013-05-10 22:12:00,74.0,66.0,-100.00,North,2,6.0,11.0,77,0.00,,,0.00,,2013-05-11 08:12:00,
2013-05-10 22:21:00,74.0,66.0,-100.00,North,2,6.0,11.0,77,0.00,,,0.00,,2013-05-11 08:21:00,
2013-05-10 22:31:00,74.0,66.0,-100.00,North,2,6.0,11.0,77,0.00,,,0.00,,2013-05-11 08:31:00,
2013-05-10 22:41:00,74.0,67.0,-100.00,North,350,6.0,11.0,78,0.00,,,0.00,,2013-05-11 08:41:00,
2013-05-10 23:01:00,74.0,67.0,-100.00,North,350,6.0,11.0,78,0.00,,,0.00,,2013-05-11 09:01:00,
2013-05-10 23:11:00,74.0,67.0,-100.00,North,350,6.0,11.0,78,0.00,,,0.00,,2013-05-11 09:11:00,
2013-05-10 23:21:00,74.0,67.0,-100.00,North,350,6.0,11.0,78,0.00,,,0.00,,2013-05-11 09:21:00,
2013-05-10 23:32:00,74.0,67.0,-100.00,North,350,6.0,11.0,78,0.00,,,0.00,,2013-05-11 09:32:00,
2013-05-10 23:41:00,73.0,66.0,-100.00,North,350,6.0,12.0,80,0.00,,,0.00,,2013-05-11 09:41:00,